sensor_id;sensor_type;location;lat;lon;timestamp;temperature;humidity
81138;DHT22;70623;50.886;3.892;2024-01-07T05:48:50;2.20;99.90
81138;DHT22;70623;50.886;3.892;2024-01-07T05:51:16;2.10;99.90
81138;DHT22;70623;50.886;3.892;2024-01-07T05:53:43;2.20;99.90
81138;DHT22;70623;50.886;3.892;2024-01-07T05:56:09;2.20;99.90
81138;DHT22;70623;50.886;3.892;2024-01-07T05:58:38;2.40;99.90
81138;DHT22;70623;50.886;3.892;2024-01-07T06:01:03;2.60;99.90
81138;DHT22;70623;50.886;3.892;2024-01-07T06:03:29;2.50;99.90
81138;DHT22;70623;50.886;3.892;2024-01-07T06:05:55;2.60;99.90
81138;DHT22;70623;50.886;3.892;2024-01-07T06:08:20;2.50;99.90
81138;DHT22;70623;50.886;3.892;2024-01-07T06:10:46;2.70;99.90
81138;DHT22;70623;50.886;3.892;2024-01-07T06:13:14;2.80;99.90
81138;DHT22;70623;50.886;3.892;2024-01-07T06:15:42;2.90;99.90
81138;DHT22;70623;50.886;3.892;2024-01-07T06:18:09;3.00;99.90
81138;DHT22;70623;50.886;3.892;2024-01-07T06:20:36;3.10;99.90
81138;DHT22;70623;50.886;3.892;2024-01-07T06:23:01;3.00;99.90
81138;DHT22;70623;50.886;3.892;2024-01-07T06:25:27;2.90;99.90
81138;DHT22;70623;50.886;3.892;2024-01-07T06:27:53;2.90;99.90
81138;DHT22;70623;50.886;3.892;2024-01-07T06:30:18;3.00;99.90
81138;DHT22;70623;50.886;3.892;2024-01-07T06:32:45;2.90;99.90
81138;DHT22;70623;50.886;3.892;2024-01-07T06:35:11;2.90;99.90
81138;DHT22;70623;50.886;3.892;2024-01-07T06:37:37;2.50;99.90
81138;DHT22;70623;50.886;3.892;2024-01-07T06:40:03;2.70;99.90
81138;DHT22;70623;50.886;3.892;2024-01-07T06:42:31;2.90;99.90
81138;DHT22;70623;50.886;3.892;2024-01-07T06:45:00;2.80;99.90
81138;DHT22;70623;50.886;3.892;2024-01-07T06:47:27;2.80;99.90
81138;DHT22;70623;50.886;3.892;2024-01-07T06:49:54;3.10;99.90
81138;DHT22;70623;50.886;3.892;2024-01-07T06:52:20;3.00;99.90
81138;DHT22;70623;50.886;3.892;2024-01-07T06:54:48;3.10;99.90
81138;DHT22;70623;50.886;3.892;2024-01-07T06:57:16;3.10;99.90
81138;DHT22;70623;50.886;3.892;2024-01-07T06:59:41;3.00;99.90
81138;DHT22;70623;50.886;3.892;2024-01-07T07:02:07;3.10;99.90
81138;DHT22;70623;50.886;3.892;2024-01-07T07:04:33;2.90;99.90
81138;DHT22;70623;50.886;3.892;2024-01-07T07:06:59;2.90;99.90
81138;DHT22;70623;50.886;3.892;2024-01-07T07:09:25;3.00;99.90
81138;DHT22;70623;50.886;3.892;2024-01-07T07:11:51;3.00;99.90
81138;DHT22;70623;50.886;3.892;2024-01-07T07:14:17;3.00;99.90
81138;DHT22;70623;50.886;3.892;2024-01-07T07:16:42;3.00;99.90
81138;DHT22;70623;50.886;3.892;2024-01-07T07:19:10;2.90;99.90
81138;DHT22;70623;50.886;3.892;2024-01-07T07:21:40;2.90;99.90
81138;DHT22;70623;50.886;3.892;2024-01-07T07:24:06;2.90;99.90
81138;DHT22;70623;50.886;3.892;2024-01-07T07:26:32;2.90;99.90
81138;DHT22;70623;50.886;3.892;2024-01-07T07:28:58;3.10;99.90
81138;DHT22;70623;50.886;3.892;2024-01-07T07:31:27;3.10;99.90
81138;DHT22;70623;50.886;3.892;2024-01-07T07:33:55;2.90;99.90
81138;DHT22;70623;50.886;3.892;2024-01-07T07:36:21;2.90;99.90
81138;DHT22;70623;50.886;3.892;2024-01-07T07:38:49;3.10;99.90
81138;DHT22;70623;50.886;3.892;2024-01-07T07:41:14;2.90;99.90
81138;DHT22;70623;50.886;3.892;2024-01-07T07:43:40;2.90;99.90
81138;DHT22;70623;50.886;3.892;2024-01-07T07:46:06;3.00;99.90
81138;DHT22;70623;50.886;3.892;2024-01-07T07:48:34;3.00;99.90
81138;DHT22;70623;50.886;3.892;2024-01-07T07:51:00;2.90;99.90
81138;DHT22;70623;50.886;3.892;2024-01-07T07:53:26;2.80;99.90
81138;DHT22;70623;50.886;3.892;2024-01-07T07:55:52;2.60;99.90
81138;DHT22;70623;50.886;3.892;2024-01-07T08:59:42;2.00;99.90
81138;DHT22;70623;50.886;3.892;2024-01-07T09:02:10;2.70;99.90
81138;DHT22;70623;50.886;3.892;2024-01-07T09:04:38;2.80;99.90
81138;DHT22;70623;50.886;3.892;2024-01-07T09:07:06;2.70;99.90
81138;DHT22;70623;50.886;3.892;2024-01-07T09:09:31;2.90;99.90
81138;DHT22;70623;50.886;3.892;2024-01-07T09:12:04;2.80;99.90
81138;DHT22;70623;50.886;3.892;2024-01-07T09:14:30;2.80;99.90
81138;DHT22;70623;50.886;3.892;2024-01-07T09:16:56;3.10;99.90
81138;DHT22;70623;50.886;3.892;2024-01-07T09:19:21;2.70;99.90
81138;DHT22;70623;50.886;3.892;2024-01-07T09:21:47;2.80;99.90
81138;DHT22;70623;50.886;3.892;2024-01-07T09:24:14;2.80;99.90
81138;DHT22;70623;50.886;3.892;2024-01-07T09:26:41;3.00;99.90
81138;DHT22;70623;50.886;3.892;2024-01-07T09:29:07;3.00;99.90
81138;DHT22;70623;50.886;3.892;2024-01-07T09:31:34;2.90;99.90
81138;DHT22;70623;50.886;3.892;2024-01-07T09:34:00;3.00;99.90
81138;DHT22;70623;50.886;3.892;2024-01-07T09:36:31;2.70;99.90
81138;DHT22;70623;50.886;3.892;2024-01-07T09:38:56;2.40;99.90
81138;DHT22;70623;50.886;3.892;2024-01-07T09:41:27;2.60;99.90
81138;DHT22;70623;50.886;3.892;2024-01-07T09:43:52;2.40;99.90
81138;DHT22;70623;50.886;3.892;2024-01-07T09:46:19;2.40;99.90
81138;DHT22;70623;50.886;3.892;2024-01-07T09:48:45;2.70;99.90
81138;DHT22;70623;50.886;3.892;2024-01-07T09:51:11;2.90;99.90
81138;DHT22;70623;50.886;3.892;2024-01-07T09:53:43;2.70;99.90
81138;DHT22;70623;50.886;3.892;2024-01-07T09:56:19;2.80;99.90
81138;DHT22;70623;50.886;3.892;2024-01-07T10:51:20;2.00;99.90
81138;DHT22;70623;50.886;3.892;2024-01-07T10:53:56;2.00;99.90
81138;DHT22;70623;50.886;3.892;2024-01-07T10:56:24;1.90;99.90
81138;DHT22;70623;50.886;3.892;2024-01-07T10:58:52;1.90;99.90
81138;DHT22;70623;50.886;3.892;2024-01-07T11:01:19;2.00;99.90
81138;DHT22;70623;50.886;3.892;2024-01-07T11:11:42;2.10;99.90
81138;DHT22;70623;50.886;3.892;2024-01-07T11:17:01;2.20;99.90
81138;DHT22;70623;50.886;3.892;2024-01-07T11:19:29;2.20;99.90
81138;DHT22;70623;50.886;3.892;2024-01-07T11:22:22;2.20;99.90
81138;DHT22;70623;50.886;3.892;2024-01-07T11:24:50;2.30;99.90
81138;DHT22;70623;50.886;3.892;2024-01-07T11:27:19;2.30;99.90
81138;DHT22;70623;50.886;3.892;2024-01-07T11:30:01;2.20;99.90
81138;DHT22;70623;50.886;3.892;2024-01-07T11:32:31;2.40;99.90
81138;DHT22;70623;50.886;3.892;2024-01-07T11:35:00;2.30;99.90
81138;DHT22;70623;50.886;3.892;2024-01-07T11:37:30;2.20;99.90
81138;DHT22;70623;50.886;3.892;2024-01-07T11:39:57;2.20;99.90
81138;DHT22;70623;50.886;3.892;2024-01-07T11:42:23;2.10;99.90
81138;DHT22;70623;50.886;3.892;2024-01-07T11:47:17;2.10;99.90
81138;DHT22;70623;50.886;3.892;2024-01-07T11:49:46;2.30;99.90
81138;DHT22;70623;50.886;3.892;2024-01-07T11:52:12;2.10;99.90
81138;DHT22;70623;50.886;3.892;2024-01-07T11:54:39;2.10;99.90
81138;DHT22;70623;50.886;3.892;2024-01-07T11:57:08;2.00;99.90
81138;DHT22;70623;50.886;3.892;2024-01-07T11:59:35;2.00;99.90
81138;DHT22;70623;50.886;3.892;2024-01-07T12:02:05;2.00;99.90
81138;DHT22;70623;50.886;3.892;2024-01-07T12:04:34;2.00;99.90
81138;DHT22;70623;50.886;3.892;2024-01-07T12:07:01;2.00;99.90
81138;DHT22;70623;50.886;3.892;2024-01-07T12:09:28;2.10;99.90
81138;DHT22;70623;50.886;3.892;2024-01-07T12:11:54;2.10;99.90
81138;DHT22;70623;50.886;3.892;2024-01-07T12:14:21;2.20;99.90
81138;DHT22;70623;50.886;3.892;2024-01-07T12:16:47;2.10;99.90
81138;DHT22;70623;50.886;3.892;2024-01-07T12:19:13;2.10;99.90
81138;DHT22;70623;50.886;3.892;2024-01-07T12:21:41;2.30;99.90
81138;DHT22;70623;50.886;3.892;2024-01-07T12:24:07;2.10;99.90
81138;DHT22;70623;50.886;3.892;2024-01-07T12:26:33;2.10;99.90
81138;DHT22;70623;50.886;3.892;2024-01-07T12:29:01;2.10;99.90
81138;DHT22;70623;50.886;3.892;2024-01-07T12:31:31;2.10;99.90
81138;DHT22;70623;50.886;3.892;2024-01-07T12:33:58;2.10;99.90
81138;DHT22;70623;50.886;3.892;2024-01-07T12:36:25;2.00;99.90
81138;DHT22;70623;50.886;3.892;2024-01-07T12:38:52;2.20;99.90
81138;DHT22;70623;50.886;3.892;2024-01-07T12:41:21;2.40;99.90
81138;DHT22;70623;50.886;3.892;2024-01-07T12:43:48;2.40;99.90
81138;DHT22;70623;50.886;3.892;2024-01-07T12:46:15;2.20;99.90
81138;DHT22;70623;50.886;3.892;2024-01-07T12:48:43;2.00;99.90
81138;DHT22;70623;50.886;3.892;2024-01-07T12:51:09;2.00;99.90
81138;DHT22;70623;50.886;3.892;2024-01-07T12:53:37;2.00;99.90
81138;DHT22;70623;50.886;3.892;2024-01-07T12:56:03;2.00;99.90
81138;DHT22;70623;50.886;3.892;2024-01-07T12:58:29;2.20;99.90
81138;DHT22;70623;50.886;3.892;2024-01-07T13:50:08;2.10;99.90
81138;DHT22;70623;50.886;3.892;2024-01-07T13:52:35;2.20;99.90
81138;DHT22;70623;50.886;3.892;2024-01-07T13:55:03;2.40;99.90
81138;DHT22;70623;50.886;3.892;2024-01-07T13:57:29;2.50;99.90
81138;DHT22;70623;50.886;3.892;2024-01-07T13:59:56;2.30;99.90
81138;DHT22;70623;50.886;3.892;2024-01-07T14:02:24;2.30;99.90
81138;DHT22;70623;50.886;3.892;2024-01-07T14:04:50;2.40;99.90
81138;DHT22;70623;50.886;3.892;2024-01-07T14:07:17;2.20;99.90
81138;DHT22;70623;50.886;3.892;2024-01-07T14:09:45;2.10;99.90
81138;DHT22;70623;50.886;3.892;2024-01-07T14:12:13;1.80;99.90
81138;DHT22;70623;50.886;3.892;2024-01-07T14:14:39;1.90;99.90
81138;DHT22;70623;50.886;3.892;2024-01-07T14:17:07;1.90;99.90
81138;DHT22;70623;50.886;3.892;2024-01-07T14:19:33;1.90;99.90
81138;DHT22;70623;50.886;3.892;2024-01-07T14:21:59;1.90;99.90
81138;DHT22;70623;50.886;3.892;2024-01-07T14:24:24;1.90;99.90
81138;DHT22;70623;50.886;3.892;2024-01-07T14:26:50;1.80;99.90
81138;DHT22;70623;50.886;3.892;2024-01-07T14:29:16;1.80;99.90
81138;DHT22;70623;50.886;3.892;2024-01-07T14:31:42;1.80;99.90
81138;DHT22;70623;50.886;3.892;2024-01-07T14:34:10;1.90;99.90
81138;DHT22;70623;50.886;3.892;2024-01-07T14:36:40;1.90;99.90
81138;DHT22;70623;50.886;3.892;2024-01-07T14:39:12;1.90;99.90
81138;DHT22;70623;50.886;3.892;2024-01-07T14:41:42;1.90;99.90
81138;DHT22;70623;50.886;3.892;2024-01-07T14:44:08;2.00;99.90
81138;DHT22;70623;50.886;3.892;2024-01-07T14:46:34;2.40;99.90
81138;DHT22;70623;50.886;3.892;2024-01-07T14:49:00;2.40;99.90
81138;DHT22;70623;50.886;3.892;2024-01-07T14:51:26;2.10;99.90
81138;DHT22;70623;50.886;3.892;2024-01-07T14:53:51;2.10;99.90
81138;DHT22;70623;50.886;3.892;2024-01-07T14:56:17;2.10;99.90
81138;DHT22;70623;50.886;3.892;2024-01-07T14:58:45;2.20;99.90
81138;DHT22;70623;50.886;3.892;2024-01-07T15:01:12;2.00;99.90
81138;DHT22;70623;50.886;3.892;2024-01-07T15:03:38;1.80;99.90
81138;DHT22;70623;50.886;3.892;2024-01-07T15:06:04;1.70;99.90
81138;DHT22;70623;50.886;3.892;2024-01-07T15:08:32;1.80;99.90
81138;DHT22;70623;50.886;3.892;2024-01-07T15:11:01;1.70;99.90
81138;DHT22;70623;50.886;3.892;2024-01-07T15:13:29;1.60;99.90
81138;DHT22;70623;50.886;3.892;2024-01-07T15:15:55;1.60;99.90
81138;DHT22;70623;50.886;3.892;2024-01-07T15:18:21;1.60;99.90
81138;DHT22;70623;50.886;3.892;2024-01-07T15:20:47;1.60;99.90
81138;DHT22;70623;50.886;3.892;2024-01-07T15:23:13;1.60;99.90
81138;DHT22;70623;50.886;3.892;2024-01-07T15:25:40;1.60;99.90
81138;DHT22;70623;50.886;3.892;2024-01-07T15:28:06;1.60;99.90
81138;DHT22;70623;50.886;3.892;2024-01-07T15:30:32;1.60;99.90
81138;DHT22;70623;50.886;3.892;2024-01-07T15:33:00;1.70;99.90
81138;DHT22;70623;50.886;3.892;2024-01-07T15:35:26;1.80;99.90
81138;DHT22;70623;50.886;3.892;2024-01-07T15:37:51;1.70;99.90
81138;DHT22;70623;50.886;3.892;2024-01-07T15:40:17;1.70;99.90
81138;DHT22;70623;50.886;3.892;2024-01-07T15:42:43;1.70;99.90
81138;DHT22;70623;50.886;3.892;2024-01-07T15:45:09;1.80;99.90
81138;DHT22;70623;50.886;3.892;2024-01-07T15:47:35;1.80;99.90
81138;DHT22;70623;50.886;3.892;2024-01-07T15:50:05;1.80;99.90
81138;DHT22;70623;50.886;3.892;2024-01-07T15:52:31;1.90;99.90
81138;DHT22;70623;50.886;3.892;2024-01-07T15:54:58;1.80;99.90
81138;DHT22;70623;50.886;3.892;2024-01-07T15:57:23;1.80;99.90
81138;DHT22;70623;50.886;3.892;2024-01-07T15:59:49;1.70;99.90
81138;DHT22;70623;50.886;3.892;2024-01-07T16:02:15;1.60;99.90
81138;DHT22;70623;50.886;3.892;2024-01-07T16:04:43;1.50;99.90
81138;DHT22;70623;50.886;3.892;2024-01-07T16:07:09;1.60;99.90
81138;DHT22;70623;50.886;3.892;2024-01-07T16:09:35;1.70;99.90
81138;DHT22;70623;50.886;3.892;2024-01-07T16:12:02;1.50;99.90
81138;DHT22;70623;50.886;3.892;2024-01-07T16:14:28;1.40;99.90
81138;DHT22;70623;50.886;3.892;2024-01-07T16:16:59;1.40;99.90
81138;DHT22;70623;50.886;3.892;2024-01-07T16:19:27;1.30;99.90
81138;DHT22;70623;50.886;3.892;2024-01-07T16:21:56;1.20;99.90
81138;DHT22;70623;50.886;3.892;2024-01-07T16:24:25;1.10;99.90
81138;DHT22;70623;50.886;3.892;2024-01-07T16:26:53;1.10;99.90
81138;DHT22;70623;50.886;3.892;2024-01-07T16:29:20;1.00;99.90
81138;DHT22;70623;50.886;3.892;2024-01-07T16:31:46;1.10;99.90
81138;DHT22;70623;50.886;3.892;2024-01-07T16:34:12;1.00;99.90
81138;DHT22;70623;50.886;3.892;2024-01-07T16:36:41;1.00;99.90
81138;DHT22;70623;50.886;3.892;2024-01-07T16:39:12;1.00;99.90
81138;DHT22;70623;50.886;3.892;2024-01-07T16:41:38;1.00;99.90
81138;DHT22;70623;50.886;3.892;2024-01-07T16:44:06;1.00;99.90
81138;DHT22;70623;50.886;3.892;2024-01-07T16:46:34;1.00;99.90
81138;DHT22;70623;50.886;3.892;2024-01-07T16:49:03;0.90;99.90
81138;DHT22;70623;50.886;3.892;2024-01-07T16:51:30;0.80;99.90
81138;DHT22;70623;50.886;3.892;2024-01-07T16:53:57;0.80;99.90
81138;DHT22;70623;50.886;3.892;2024-01-07T16:56:26;0.70;99.90
81138;DHT22;70623;50.886;3.892;2024-01-07T16:58:52;0.70;99.90
81138;DHT22;70623;50.886;3.892;2024-01-07T17:01:18;0.60;99.90
81138;DHT22;70623;50.886;3.892;2024-01-07T17:03:46;0.50;99.90
81138;DHT22;70623;50.886;3.892;2024-01-07T17:06:12;0.40;99.90
81138;DHT22;70623;50.886;3.892;2024-01-07T17:08:42;0.50;99.90
81138;DHT22;70623;50.886;3.892;2024-01-07T17:11:08;0.40;99.90
81138;DHT22;70623;50.886;3.892;2024-01-07T17:13:36;0.50;99.90
81138;DHT22;70623;50.886;3.892;2024-01-07T17:16:04;0.50;99.90
81138;DHT22;70623;50.886;3.892;2024-01-07T17:18:30;0.40;99.90
81138;DHT22;70623;50.886;3.892;2024-01-07T17:20:56;0.50;99.90
81138;DHT22;70623;50.886;3.892;2024-01-07T17:23:22;0.50;99.90
